sensor_id;sensor_type;location;lat;lon;timestamp;P1;durP1;ratioP1;P2;durP2;ratioP2
24305;SDS011;12423;48.768;8.850;2023-06-24T00:00:01;6.75;;;5.50;;
24305;SDS011;12423;48.768;8.850;2023-06-24T00:02:07;6.38;;;5.20;;
24305;SDS011;12423;48.768;8.850;2023-06-24T00:04:09;7.78;;;5.47;;
24305;SDS011;12423;48.768;8.850;2023-06-24T00:06:10;6.53;;;5.13;;
24305;SDS011;12423;48.768;8.850;2023-06-24T00:08:11;6.78;;;4.82;;
24305;SDS011;12423;48.768;8.850;2023-06-24T00:10:13;6.75;;;5.25;;
24305;SDS011;12423;48.768;8.850;2023-06-24T00:12:15;7.32;;;4.97;;
24305;SDS011;12423;48.768;8.850;2023-06-24T00:14:19;7.25;;;5.28;;
24305;SDS011;12423;48.768;8.850;2023-06-24T00:16:22;9.23;;;6.40;;
24305;SDS011;12423;48.768;8.850;2023-06-24T00:18:26;10.20;;;6.28;;
24305;SDS011;12423;48.768;8.850;2023-06-24T00:20:29;7.78;;;6.30;;
24305;SDS011;12423;48.768;8.850;2023-06-24T00:22:30;8.95;;;5.82;;
24305;SDS011;12423;48.768;8.850;2023-06-24T00:24:31;9.65;;;6.70;;
24305;SDS011;12423;48.768;8.850;2023-06-24T00:26:32;9.02;;;6.50;;
24305;SDS011;12423;48.768;8.850;2023-06-24T00:28:33;9.07;;;6.15;;
24305;SDS011;12423;48.768;8.850;2023-06-24T00:30:34;8.15;;;6.10;;
24305;SDS011;12423;48.768;8.850;2023-06-24T00:32:35;8.00;;;6.63;;
24305;SDS011;12423;48.768;8.850;2023-06-24T00:34:36;8.00;;;6.10;;
24305;SDS011;12423;48.768;8.850;2023-06-24T00:36:37;9.85;;;6.45;;
24305;SDS011;12423;48.768;8.850;2023-06-24T00:38:39;7.78;;;6.38;;
24305;SDS011;12423;48.768;8.850;2023-06-24T00:40:40;9.75;;;6.20;;
24305;SDS011;12423;48.768;8.850;2023-06-24T00:42:46;8.00;;;5.35;;
24305;SDS011;12423;48.768;8.850;2023-06-24T00:44:47;9.90;;;6.18;;
24305;SDS011;12423;48.768;8.850;2023-06-24T00:46:49;7.15;;;5.72;;
24305;SDS011;12423;48.768;8.850;2023-06-24T00:48:52;8.02;;;5.78;;
24305;SDS011;12423;48.768;8.850;2023-06-24T00:50:54;7.80;;;6.22;;
24305;SDS011;12423;48.768;8.850;2023-06-24T00:52:55;7.70;;;6.13;;
24305;SDS011;12423;48.768;8.850;2023-06-24T00:54:56;7.43;;;5.97;;
24305;SDS011;12423;48.768;8.850;2023-06-24T00:56:57;8.13;;;6.35;;
24305;SDS011;12423;48.768;8.850;2023-06-24T00:59:02;7.68;;;6.18;;
24305;SDS011;12423;48.768;8.850;2023-06-24T01:01:03;11.32;;;6.63;;
24305;SDS011;12423;48.768;8.850;2023-06-24T01:03:06;8.18;;;6.18;;
24305;SDS011;12423;48.768;8.850;2023-06-24T01:05:08;7.70;;;6.00;;
24305;SDS011;12423;48.768;8.850;2023-06-24T01:07:09;9.05;;;6.28;;
24305;SDS011;12423;48.768;8.850;2023-06-24T01:09:11;9.18;;;5.93;;
24305;SDS011;12423;48.768;8.850;2023-06-24T01:11:13;9.63;;;6.38;;
24305;SDS011;12423;48.768;8.850;2023-06-24T01:13:14;8.25;;;6.15;;
24305;SDS011;12423;48.768;8.850;2023-06-24T01:15:16;8.73;;;5.68;;
24305;SDS011;12423;48.768;8.850;2023-06-24T01:17:31;7.78;;;6.18;;
24305;SDS011;12423;48.768;8.850;2023-06-24T01:22:15;10.50;;;6.50;;
24305;SDS011;12423;48.768;8.850;2023-06-24T01:24:32;8.35;;;6.05;;
24305;SDS011;12423;48.768;8.850;2023-06-24T01:29:09;7.28;;;5.72;;
24305;SDS011;12423;48.768;8.850;2023-06-24T01:33:49;9.45;;;6.22;;
24305;SDS011;12423;48.768;8.850;2023-06-24T01:35:57;7.82;;;5.90;;
24305;SDS011;12423;48.768;8.850;2023-06-24T01:38:01;7.70;;;6.15;;
24305;SDS011;12423;48.768;8.850;2023-06-24T01:40:27;12.40;;;6.05;;
24305;SDS011;12423;48.768;8.850;2023-06-24T01:42:31;8.10;;;6.00;;
24305;SDS011;12423;48.768;8.850;2023-06-24T01:44:35;9.18;;;5.80;;
24305;SDS011;12423;48.768;8.850;2023-06-24T01:46:38;8.15;;;6.18;;
24305;SDS011;12423;48.768;8.850;2023-06-24T01:48:42;7.97;;;6.00;;
24305;SDS011;12423;48.768;8.850;2023-06-24T01:50:57;8.75;;;6.32;;
24305;SDS011;12423;48.768;8.850;2023-06-24T01:53:04;7.15;;;5.55;;
24305;SDS011;12423;48.768;8.850;2023-06-24T01:55:08;9.70;;;6.40;;
24305;SDS011;12423;48.768;8.850;2023-06-24T01:57:11;7.75;;;5.93;;
24305;SDS011;12423;48.768;8.850;2023-06-24T01:59:13;9.90;;;6.40;;
24305;SDS011;12423;48.768;8.850;2023-06-24T02:01:18;8.50;;;6.20;;
24305;SDS011;12423;48.768;8.850;2023-06-24T02:03:19;9.52;;;6.35;;
24305;SDS011;12423;48.768;8.850;2023-06-24T02:05:22;9.38;;;6.65;;
24305;SDS011;12423;48.768;8.850;2023-06-24T02:07:26;7.97;;;5.05;;
24305;SDS011;12423;48.768;8.850;2023-06-24T02:09:31;8.10;;;6.00;;
24305;SDS011;12423;48.768;8.850;2023-06-24T02:11:33;8.60;;;6.43;;
24305;SDS011;12423;48.768;8.850;2023-06-24T02:13:37;8.75;;;6.10;;
24305;SDS011;12423;48.768;8.850;2023-06-24T02:15:46;8.25;;;5.78;;
24305;SDS011;12423;48.768;8.850;2023-06-24T02:17:50;7.60;;;6.05;;
24305;SDS011;12423;48.768;8.850;2023-06-24T02:19:52;8.40;;;6.00;;
24305;SDS011;12423;48.768;8.850;2023-06-24T02:21:55;10.70;;;6.03;;
24305;SDS011;12423;48.768;8.850;2023-06-24T02:23:59;8.23;;;6.30;;
24305;SDS011;12423;48.768;8.850;2023-06-24T02:26:01;7.72;;;5.95;;
24305;SDS011;12423;48.768;8.850;2023-06-24T02:28:06;7.63;;;6.07;;
24305;SDS011;12423;48.768;8.850;2023-06-24T02:30:09;8.43;;;6.15;;
24305;SDS011;12423;48.768;8.850;2023-06-24T02:32:11;8.50;;;6.22;;
24305;SDS011;12423;48.768;8.850;2023-06-24T02:34:12;7.68;;;6.18;;
24305;SDS011;12423;48.768;8.850;2023-06-24T02:36:14;8.07;;;5.15;;
24305;SDS011;12423;48.768;8.850;2023-06-24T02:38:15;7.72;;;6.20;;
24305;SDS011;12423;48.768;8.850;2023-06-24T02:40:16;9.45;;;6.22;;
24305;SDS011;12423;48.768;8.850;2023-06-24T02:42:17;8.32;;;5.80;;
24305;SDS011;12423;48.768;8.850;2023-06-24T02:44:18;8.80;;;5.93;;
24305;SDS011;12423;48.768;8.850;2023-06-24T02:46:20;9.68;;;6.20;;
24305;SDS011;12423;48.768;8.850;2023-06-24T02:48:22;10.35;;;6.00;;
24305;SDS011;12423;48.768;8.850;2023-06-24T02:50:23;7.18;;;4.97;;
24305;SDS011;12423;48.768;8.850;2023-06-24T02:52:26;13.25;;;5.97;;
24305;SDS011;12423;48.768;8.850;2023-06-24T02:54:30;7.72;;;5.75;;
24305;SDS011;12423;48.768;8.850;2023-06-24T02:56:50;8.70;;;5.90;;
24305;SDS011;12423;48.768;8.850;2023-06-24T02:59:00;8.60;;;5.97;;
24305;SDS011;12423;48.768;8.850;2023-06-24T03:01:02;7.75;;;6.38;;
24305;SDS011;12423;48.768;8.850;2023-06-24T03:03:23;8.68;;;6.00;;
24305;SDS011;12423;48.768;8.850;2023-06-24T03:05:28;11.27;;;6.35;;
24305;SDS011;12423;48.768;8.850;2023-06-24T03:07:30;9.02;;;6.60;;
24305;SDS011;12423;48.768;8.850;2023-06-24T03:09:33;8.20;;;6.40;;
24305;SDS011;12423;48.768;8.850;2023-06-24T03:11:42;8.00;;;5.75;;
24305;SDS011;12423;48.768;8.850;2023-06-24T03:13:45;7.88;;;5.85;;
24305;SDS011;12423;48.768;8.850;2023-06-24T03:15:55;7.60;;;5.80;;
24305;SDS011;12423;48.768;8.850;2023-06-24T03:17:58;8.30;;;6.05;;
24305;SDS011;12423;48.768;8.850;2023-06-24T03:20:00;8.10;;;6.38;;
24305;SDS011;12423;48.768;8.850;2023-06-24T03:22:01;7.38;;;5.80;;
24305;SDS011;12423;48.768;8.850;2023-06-24T03:24:03;7.75;;;5.97;;
24305;SDS011;12423;48.768;8.850;2023-06-24T03:26:05;7.47;;;6.00;;
24305;SDS011;12423;48.768;8.850;2023-06-24T03:28:06;8.05;;;5.68;;
24305;SDS011;12423;48.768;8.850;2023-06-24T03:30:16;8.48;;;6.20;;
24305;SDS011;12423;48.768;8.850;2023-06-24T03:32:19;10.88;;;6.05;;
24305;SDS011;12423;48.768;8.850;2023-06-24T03:34:21;9.63;;;6.45;;
24305;SDS011;12423;48.768;8.850;2023-06-24T03:36:22;8.85;;;6.57;;
24305;SDS011;12423;48.768;8.850;2023-06-24T03:38:25;8.00;;;5.93;;
24305;SDS011;12423;48.768;8.850;2023-06-24T03:40:26;9.10;;;5.45;;
24305;SDS011;12423;48.768;8.850;2023-06-24T03:42:27;9.35;;;5.95;;
24305;SDS011;12423;48.768;8.850;2023-06-24T03:44:30;8.32;;;5.93;;
24305;SDS011;12423;48.768;8.850;2023-06-24T03:46:31;8.15;;;6.05;;
24305;SDS011;12423;48.768;8.850;2023-06-24T03:48:35;7.35;;;5.53;;
24305;SDS011;12423;48.768;8.850;2023-06-24T03:50:36;8.13;;;5.88;;
24305;SDS011;12423;48.768;8.850;2023-06-24T03:52:37;7.72;;;6.10;;
24305;SDS011;12423;48.768;8.850;2023-06-24T03:54:38;9.07;;;6.00;;
24305;SDS011;12423;48.768;8.850;2023-06-24T03:56:40;9.70;;;6.45;;
24305;SDS011;12423;48.768;8.850;2023-06-24T03:58:41;9.30;;;6.18;;
24305;SDS011;12423;48.768;8.850;2023-06-24T04:00:43;8.43;;;6.40;;
24305;SDS011;12423;48.768;8.850;2023-06-24T04:02:44;9.50;;;6.03;;
24305;SDS011;12423;48.768;8.850;2023-06-24T04:04:45;7.53;;;5.60;;
24305;SDS011;12423;48.768;8.850;2023-06-24T04:06:51;8.05;;;6.13;;
24305;SDS011;12423;48.768;8.850;2023-06-24T04:08:52;8.88;;;6.28;;
24305;SDS011;12423;48.768;8.850;2023-06-24T04:10:54;8.05;;;5.15;;
24305;SDS011;12423;48.768;8.850;2023-06-24T04:13:00;9.15;;;5.88;;
24305;SDS011;12423;48.768;8.850;2023-06-24T04:15:02;10.77;;;5.60;;
24305;SDS011;12423;48.768;8.850;2023-06-24T04:17:04;7.78;;;5.63;;
24305;SDS011;12423;48.768;8.850;2023-06-24T04:19:05;8.27;;;6.00;;
24305;SDS011;12423;48.768;8.850;2023-06-24T04:21:06;7.90;;;5.80;;
24305;SDS011;12423;48.768;8.850;2023-06-24T04:23:08;8.82;;;5.68;;
24305;SDS011;12423;48.768;8.850;2023-06-24T04:25:11;8.48;;;5.60;;
24305;SDS011;12423;48.768;8.850;2023-06-24T04:27:12;11.95;;;5.72;;
24305;SDS011;12423;48.768;8.850;2023-06-24T04:29:13;8.27;;;6.05;;
24305;SDS011;12423;48.768;8.850;2023-06-24T04:31:14;10.55;;;5.90;;
24305;SDS011;12423;48.768;8.850;2023-06-24T04:33:17;8.85;;;6.10;;
24305;SDS011;12423;48.768;8.850;2023-06-24T04:35:18;8.77;;;5.75;;
24305;SDS011;12423;48.768;8.850;2023-06-24T04:37:19;7.85;;;6.13;;
24305;SDS011;12423;48.768;8.850;2023-06-24T04:39:22;7.78;;;5.93;;
24305;SDS011;12423;48.768;8.850;2023-06-24T04:41:23;11.13;;;6.13;;
24305;SDS011;12423;48.768;8.850;2023-06-24T04:43:26;8.63;;;6.20;;
24305;SDS011;12423;48.768;8.850;2023-06-24T04:45:30;7.60;;;5.97;;
24305;SDS011;12423;48.768;8.850;2023-06-24T04:47:31;9.13;;;5.97;;
24305;SDS011;12423;48.768;8.850;2023-06-24T04:49:32;9.75;;;6.57;;
24305;SDS011;12423;48.768;8.850;2023-06-24T04:51:33;9.38;;;6.10;;
24305;SDS011;12423;48.768;8.850;2023-06-24T04:53:34;9.95;;;6.10;;
24305;SDS011;12423;48.768;8.850;2023-06-24T04:55:37;9.00;;;6.10;;
24305;SDS011;12423;48.768;8.850;2023-06-24T04:57:38;8.77;;;6.68;;
24305;SDS011;12423;48.768;8.850;2023-06-24T04:59:39;8.95;;;6.15;;
24305;SDS011;12423;48.768;8.850;2023-06-24T05:01:40;7.28;;;5.68;;
24305;SDS011;12423;48.768;8.850;2023-06-24T05:03:41;7.45;;;5.85;;
24305;SDS011;12423;48.768;8.850;2023-06-24T05:05:42;9.00;;;6.05;;
24305;SDS011;12423;48.768;8.850;2023-06-24T05:07:43;7.55;;;5.78;;
24305;SDS011;12423;48.768;8.850;2023-06-24T05:09:48;9.05;;;6.03;;
24305;SDS011;12423;48.768;8.850;2023-06-24T05:11:49;7.80;;;5.25;;
24305;SDS011;12423;48.768;8.850;2023-06-24T05:13:50;6.78;;;5.32;;
24305;SDS011;12423;48.768;8.850;2023-06-24T05:15:51;7.82;;;5.50;;
24305;SDS011;12423;48.768;8.850;2023-06-24T05:17:52;7.50;;;5.65;;
24305;SDS011;12423;48.768;8.850;2023-06-24T05:19:53;7.28;;;5.78;;
24305;SDS011;12423;48.768;8.850;2023-06-24T05:21:54;9.45;;;5.97;;
24305;SDS011;12423;48.768;8.850;2023-06-24T05:23:55;8.75;;;6.10;;
24305;SDS011;12423;48.768;8.850;2023-06-24T05:25:56;8.15;;;6.43;;
24305;SDS011;12423;48.768;8.850;2023-06-24T05:27:57;8.82;;;5.65;;
24305;SDS011;12423;48.768;8.850;2023-06-24T05:29:58;7.63;;;5.68;;
24305;SDS011;12423;48.768;8.850;2023-06-24T05:31:59;10.23;;;5.43;;
24305;SDS011;12423;48.768;8.850;2023-06-24T05:34:02;7.55;;;5.63;;
24305;SDS011;12423;48.768;8.850;2023-06-24T05:36:03;9.30;;;5.60;;
24305;SDS011;12423;48.768;8.850;2023-06-24T05:38:04;7.40;;;5.25;;
24305;SDS011;12423;48.768;8.850;2023-06-24T05:40:05;7.38;;;5.72;;
24305;SDS011;12423;48.768;8.850;2023-06-24T05:42:07;7.35;;;5.60;;
24305;SDS011;12423;48.768;8.850;2023-06-24T05:44:09;7.80;;;5.60;;
24305;SDS011;12423;48.768;8.850;2023-06-24T05:46:12;7.75;;;5.07;;
24305;SDS011;12423;48.768;8.850;2023-06-24T05:48:13;6.65;;;5.35;;
24305;SDS011;12423;48.768;8.850;2023-06-24T05:50:15;8.27;;;5.43;;
24305;SDS011;12423;48.768;8.850;2023-06-24T05:52:16;7.07;;;5.47;;
24305;SDS011;12423;48.768;8.850;2023-06-24T05:54:17;6.38;;;5.43;;
24305;SDS011;12423;48.768;8.850;2023-06-24T05:56:19;7.53;;;5.47;;
24305;SDS011;12423;48.768;8.850;2023-06-24T05:58:20;7.68;;;5.45;;
24305;SDS011;12423;48.768;8.850;2023-06-24T06:00:22;8.18;;;5.65;;
24305;SDS011;12423;48.768;8.850;2023-06-24T06:02:23;8.40;;;5.18;;
24305;SDS011;12423;48.768;8.850;2023-06-24T06:04:24;7.90;;;5.00;;
24305;SDS011;12423;48.768;8.850;2023-06-24T06:06:25;7.45;;;5.32;;
24305;SDS011;12423;48.768;8.850;2023-06-24T06:08:26;6.53;;;5.20;;
24305;SDS011;12423;48.768;8.850;2023-06-24T06:10:27;7.07;;;5.20;;
24305;SDS011;12423;48.768;8.850;2023-06-24T06:12:28;7.80;;;5.53;;
24305;SDS011;12423;48.768;8.850;2023-06-24T06:14:29;8.15;;;5.65;;
24305;SDS011;12423;48.768;8.850;2023-06-24T06:16:30;10.10;;;5.22;;
24305;SDS011;12423;48.768;8.850;2023-06-24T06:18:31;10.13;;;5.85;;
24305;SDS011;12423;48.768;8.850;2023-06-24T06:20:32;9.68;;;5.70;;
24305;SDS011;12423;48.768;8.850;2023-06-24T06:22:33;9.70;;;5.68;;
24305;SDS011;12423;48.768;8.850;2023-06-24T06:24:38;6.72;;;5.10;;
24305;SDS011;12423;48.768;8.850;2023-06-24T06:26:42;7.28;;;5.35;;
24305;SDS011;12423;48.768;8.850;2023-06-24T06:28:46;7.10;;;4.75;;
24305;SDS011;12423;48.768;8.850;2023-06-24T06:30:50;6.68;;;4.95;;
24305;SDS011;12423;48.768;8.850;2023-06-24T06:32:51;7.70;;;4.90;;
24305;SDS011;12423;48.768;8.850;2023-06-24T06:34:52;8.27;;;6.15;;
24305;SDS011;12423;48.768;8.850;2023-06-24T06:36:53;7.28;;;5.43;;
24305;SDS011;12423;48.768;8.850;2023-06-24T06:38:54;8.00;;;4.95;;
24305;SDS011;12423;48.768;8.850;2023-06-24T06:40:55;5.80;;;4.53;;
24305;SDS011;12423;48.768;8.850;2023-06-24T06:42:56;6.15;;;4.38;;
24305;SDS011;12423;48.768;8.850;2023-06-24T06:44:57;5.95;;;4.50;;
24305;SDS011;12423;48.768;8.850;2023-06-24T06:46:58;6.30;;;4.40;;
24305;SDS011;12423;48.768;8.850;2023-06-24T06:49:00;11.52;;;5.85;;
24305;SDS011;12423;48.768;8.850;2023-06-24T06:51:01;6.63;;;4.47;;
24305;SDS011;12423;48.768;8.850;2023-06-24T06:53:02;8.82;;;4.55;;
24305;SDS011;12423;48.768;8.850;2023-06-24T06:55:03;6.03;;;4.45;;
24305;SDS011;12423;48.768;8.850;2023-06-24T06:57:04;5.80;;;4.45;;
24305;SDS011;12423;48.768;8.850;2023-06-24T06:59:05;6.53;;;4.40;;
24305;SDS011;12423;48.768;8.850;2023-06-24T07:01:06;5.30;;;4.25;;
24305;SDS011;12423;48.768;8.850;2023-06-24T07:03:07;5.70;;;4.28;;
24305;SDS011;12423;48.768;8.850;2023-06-24T07:05:08;6.63;;;4.68;;
24305;SDS011;12423;48.768;8.850;2023-06-24T07:07:10;6.45;;;4.35;;
24305;SDS011;12423;48.768;8.850;2023-06-24T07:09:12;5.97;;;4.50;;
24305;SDS011;12423;48.768;8.850;2023-06-24T07:11:13;5.60;;;4.35;;
24305;SDS011;12423;48.768;8.850;2023-06-24T07:13:14;9.80;;;4.53;;
24305;SDS011;12423;48.768;8.850;2023-06-24T07:15:15;5.63;;;4.22;;
24305;SDS011;12423;48.768;8.850;2023-06-24T07:17:19;5.63;;;4.30;;
24305;SDS011;12423;48.768;8.850;2023-06-24T07:19:20;4.85;;;3.67;;
24305;SDS011;12423;48.768;8.850;2023-06-24T07:21:21;6.53;;;4.13;;
24305;SDS011;12423;48.768;8.850;2023-06-24T07:23:23;5.20;;;4.22;;
24305;SDS011;12423;48.768;8.850;2023-06-24T07:25:24;5.13;;;3.90;;
24305;SDS011;12423;48.768;8.850;2023-06-24T07:27:26;5.80;;;4.00;;
24305;SDS011;12423;48.768;8.850;2023-06-24T07:29:28;4.88;;;3.67;;
24305;SDS011;12423;48.768;8.850;2023-06-24T07:31:29;5.30;;;3.88;;
24305;SDS011;12423;48.768;8.850;2023-06-24T07:33:30;6.30;;;4.30;;
24305;SDS011;12423;48.768;8.850;2023-06-24T07:35:31;5.50;;;4.13;;
24305;SDS011;12423;48.768;8.850;2023-06-24T07:37:36;5.72;;;3.80;;
24305;SDS011;12423;48.768;8.850;2023-06-24T07:39:37;5.78;;;4.25;;
24305;SDS011;12423;48.768;8.850;2023-06-24T07:41:38;5.70;;;4.18;;
24305;SDS011;12423;48.768;8.850;2023-06-24T07:43:39;7.05;;;4.05;;
24305;SDS011;12423;48.768;8.850;2023-06-24T07:45:40;7.68;;;4.00;;
24305;SDS011;12423;48.768;8.850;2023-06-24T07:47:41;6.15;;;4.15;;
24305;SDS011;12423;48.768;8.850;2023-06-24T07:49:42;5.60;;;4.30;;
24305;SDS011;12423;48.768;8.850;2023-06-24T07:51:43;6.22;;;4.38;;
24305;SDS011;12423;48.768;8.850;2023-06-24T07:53:48;5.40;;;3.83;;
24305;SDS011;12423;48.768;8.850;2023-06-24T07:55:49;4.43;;;3.45;;
24305;SDS011;12423;48.768;8.850;2023-06-24T07:57:50;4.50;;;3.67;;
24305;SDS011;12423;48.768;8.850;2023-06-24T07:59:51;6.90;;;4.10;;
24305;SDS011;12423;48.768;8.850;2023-06-24T08:01:52;5.68;;;3.63;;
24305;SDS011;12423;48.768;8.850;2023-06-24T08:03:53;9.10;;;3.80;;
24305;SDS011;12423;48.768;8.850;2023-06-24T08:05:54;6.22;;;3.85;;
24305;SDS011;12423;48.768;8.850;2023-06-24T08:07:56;5.55;;;4.05;;
24305;SDS011;12423;48.768;8.850;2023-06-24T08:09:58;7.05;;;3.78;;
24305;SDS011;12423;48.768;8.850;2023-06-24T08:11:59;4.70;;;3.40;;
24305;SDS011;12423;48.768;8.850;2023-06-24T08:14:00;4.90;;;3.45;;
24305;SDS011;12423;48.768;8.850;2023-06-24T08:16:02;6.97;;;3.60;;
24305;SDS011;12423;48.768;8.850;2023-06-24T08:18:03;4.95;;;3.35;;
24305;SDS011;12423;48.768;8.850;2023-06-24T08:20:04;4.93;;;3.40;;
24305;SDS011;12423;48.768;8.850;2023-06-24T08:22:05;6.22;;;3.60;;
24305;SDS011;12423;48.768;8.850;2023-06-24T08:24:06;9.65;;;3.63;;
24305;SDS011;12423;48.768;8.850;2023-06-24T08:26:07;5.00;;;3.67;;
24305;SDS011;12423;48.768;8.850;2023-06-24T08:28:10;6.03;;;3.40;;
24305;SDS011;12423;48.768;8.850;2023-06-24T08:30:11;5.40;;;3.50;;
24305;SDS011;12423;48.768;8.850;2023-06-24T08:32:12;5.00;;;3.42;;
24305;SDS011;12423;48.768;8.850;2023-06-24T08:34:13;5.78;;;2.75;;
24305;SDS011;12423;48.768;8.850;2023-06-24T08:36:14;4.88;;;3.10;;
24305;SDS011;12423;48.768;8.850;2023-06-24T08:38:16;4.60;;;3.13;;
24305;SDS011;12423;48.768;8.850;2023-06-24T08:40:17;4.78;;;3.05;;
24305;SDS011;12423;48.768;8.850;2023-06-24T08:42:20;4.95;;;3.15;;
24305;SDS011;12423;48.768;8.850;2023-06-24T08:44:21;12.32;;;3.45;;
24305;SDS011;12423;48.768;8.850;2023-06-24T08:46:23;4.82;;;2.90;;
24305;SDS011;12423;48.768;8.850;2023-06-24T08:48:26;6.97;;;3.28;;
24305;SDS011;12423;48.768;8.850;2023-06-24T08:50:35;5.03;;;3.22;;
24305;SDS011;12423;48.768;8.850;2023-06-24T08:52:42;7.22;;;3.17;;
24305;SDS011;12423;48.768;8.850;2023-06-24T08:54:46;6.40;;;3.00;;
24305;SDS011;12423;48.768;8.850;2023-06-24T08:56:49;6.15;;;2.97;;
24305;SDS011;12423;48.768;8.850;2023-06-24T08:58:50;5.25;;;3.10;;
24305;SDS011;12423;48.768;8.850;2023-06-24T09:00:52;4.53;;;2.97;;
24305;SDS011;12423;48.768;8.850;2023-06-24T09:02:53;6.75;;;3.50;;
24305;SDS011;12423;48.768;8.850;2023-06-24T09:04:54;4.13;;;3.20;;
24305;SDS011;12423;48.768;8.850;2023-06-24T09:06:55;3.90;;;2.70;;
24305;SDS011;12423;48.768;8.850;2023-06-24T09:08:57;4.20;;;2.88;;
24305;SDS011;12423;48.768;8.850;2023-06-24T09:10:58;10.27;;;2.90;;
24305;SDS011;12423;48.768;8.850;2023-06-24T09:13:00;5.22;;;2.92;;
24305;SDS011;12423;48.768;8.850;2023-06-24T09:15:02;4.70;;;2.80;;
24305;SDS011;12423;48.768;8.850;2023-06-24T09:17:03;3.80;;;2.78;;
24305;SDS011;12423;48.768;8.850;2023-06-24T09:19:04;5.13;;;2.90;;
24305;SDS011;12423;48.768;8.850;2023-06-24T09:21:05;4.72;;;2.75;;
24305;SDS011;12423;48.768;8.850;2023-06-24T09:23:07;4.88;;;2.60;;
24305;SDS011;12423;48.768;8.850;2023-06-24T09:25:08;4.70;;;2.85;;
24305;SDS011;12423;48.768;8.850;2023-06-24T09:27:09;3.85;;;2.40;;
24305;SDS011;12423;48.768;8.850;2023-06-24T09:29:13;6.65;;;2.85;;
24305;SDS011;12423;48.768;8.850;2023-06-24T09:31:15;11.43;;;3.30;;
24305;SDS011;12423;48.768;8.850;2023-06-24T09:33:16;7.68;;;3.08;;
24305;SDS011;12423;48.768;8.850;2023-06-24T09:35:23;4.00;;;2.60;;
24305;SDS011;12423;48.768;8.850;2023-06-24T09:37:25;3.92;;;2.22;;
24305;SDS011;12423;48.768;8.850;2023-06-24T09:39:35;4.32;;;2.55;;
24305;SDS011;12423;48.768;8.850;2023-06-24T09:41:40;4.38;;;2.90;;
24305;SDS011;12423;48.768;8.850;2023-06-24T09:43:43;4.60;;;3.03;;
24305;SDS011;12423;48.768;8.850;2023-06-24T09:45:45;4.75;;;2.72;;
24305;SDS011;12423;48.768;8.850;2023-06-24T09:47:49;5.15;;;2.90;;
24305;SDS011;12423;48.768;8.850;2023-06-24T09:49:53;6.00;;;3.03;;
24305;SDS011;12423;48.768;8.850;2023-06-24T09:51:56;4.60;;;3.30;;
24305;SDS011;12423;48.768;8.850;2023-06-24T09:54:00;3.70;;;2.80;;
24305;SDS011;12423;48.768;8.850;2023-06-24T09:56:03;4.88;;;2.88;;
24305;SDS011;12423;48.768;8.850;2023-06-24T09:58:05;4.60;;;3.20;;
24305;SDS011;12423;48.768;8.850;2023-06-24T10:00:06;4.13;;;2.95;;
24305;SDS011;12423;48.768;8.850;2023-06-24T10:02:08;6.60;;;2.92;;
24305;SDS011;12423;48.768;8.850;2023-06-24T10:04:18;5.05;;;3.05;;
24305;SDS011;12423;48.768;8.850;2023-06-24T10:06:21;4.50;;;2.78;;
24305;SDS011;12423;48.768;8.850;2023-06-24T10:08:22;4.68;;;2.63;;
24305;SDS011;12423;48.768;8.850;2023-06-24T10:10:23;3.90;;;2.70;;
24305;SDS011;12423;48.768;8.850;2023-06-24T10:12:24;4.38;;;3.08;;
24305;SDS011;12423;48.768;8.850;2023-06-24T10:14:27;4.13;;;2.72;;
24305;SDS011;12423;48.768;8.850;2023-06-24T10:16:28;5.28;;;2.78;;
24305;SDS011;12423;48.768;8.850;2023-06-24T10:18:36;4.55;;;3.00;;
24305;SDS011;12423;48.768;8.850;2023-06-24T10:22:38;3.42;;;2.63;;
24305;SDS011;12423;48.768;8.850;2023-06-24T10:24:40;4.90;;;2.65;;
24305;SDS011;12423;48.768;8.850;2023-06-24T10:26:45;5.47;;;2.33;;
24305;SDS011;12423;48.768;8.850;2023-06-24T10:31:08;4.03;;;2.55;;
24305;SDS011;12423;48.768;8.850;2023-06-24T10:33:12;3.65;;;2.33;;
24305;SDS011;12423;48.768;8.850;2023-06-24T10:37:31;4.00;;;2.70;;
24305;SDS011;12423;48.768;8.850;2023-06-24T10:41:49;4.13;;;2.30;;
24305;SDS011;12423;48.768;8.850;2023-06-24T10:43:50;4.47;;;2.75;;
24305;SDS011;12423;48.768;8.850;2023-06-24T10:45:51;3.38;;;2.38;;
24305;SDS011;12423;48.768;8.850;2023-06-24T10:47:53;3.50;;;2.47;;
24305;SDS011;12423;48.768;8.850;2023-06-24T10:49:56;3.28;;;2.42;;
24305;SDS011;12423;48.768;8.850;2023-06-24T10:51:58;4.53;;;2.35;;
24305;SDS011;12423;48.768;8.850;2023-06-24T10:53:59;4.75;;;2.88;;
24305;SDS011;12423;48.768;8.850;2023-06-24T10:56:00;4.15;;;2.35;;
24305;SDS011;12423;48.768;8.850;2023-06-24T10:58:11;4.60;;;2.25;;
24305;SDS011;12423;48.768;8.850;2023-06-24T11:00:15;3.97;;;2.50;;
24305;SDS011;12423;48.768;8.850;2023-06-24T11:02:17;4.18;;;2.33;;
24305;SDS011;12423;48.768;8.850;2023-06-24T11:04:19;4.93;;;2.15;;
24305;SDS011;12423;48.768;8.850;2023-06-24T11:06:20;4.70;;;2.15;;
24305;SDS011;12423;48.768;8.850;2023-06-24T11:08:21;3.63;;;2.65;;
24305;SDS011;12423;48.768;8.850;2023-06-24T11:10:22;3.50;;;2.20;;
24305;SDS011;12423;48.768;8.850;2023-06-24T11:12:26;4.03;;;2.10;;
24305;SDS011;12423;48.768;8.850;2023-06-24T11:14:28;3.10;;;2.40;;
24305;SDS011;12423;48.768;8.850;2023-06-24T11:16:29;3.47;;;2.60;;
24305;SDS011;12423;48.768;8.850;2023-06-24T11:18:36;3.50;;;1.90;;
24305;SDS011;12423;48.768;8.850;2023-06-24T11:20:38;4.15;;;1.90;;
24305;SDS011;12423;48.768;8.850;2023-06-24T11:22:40;3.70;;;2.10;;
24305;SDS011;12423;48.768;8.850;2023-06-24T11:24:42;3.63;;;2.20;;
24305;SDS011;12423;48.768;8.850;2023-06-24T11:26:43;3.30;;;2.08;;
24305;SDS011;12423;48.768;8.850;2023-06-24T11:28:47;2.88;;;2.00;;
24305;SDS011;12423;48.768;8.850;2023-06-24T11:30:48;2.65;;;2.10;;
24305;SDS011;12423;48.768;8.850;2023-06-24T11:32:49;3.83;;;2.20;;
24305;SDS011;12423;48.768;8.850;2023-06-24T11:34:51;3.50;;;2.28;;
24305;SDS011;12423;48.768;8.850;2023-06-24T11:36:52;3.33;;;2.38;;
24305;SDS011;12423;48.768;8.850;2023-06-24T11:38:53;3.58;;;2.38;;
24305;SDS011;12423;48.768;8.850;2023-06-24T11:40:57;3.38;;;2.20;;
24305;SDS011;12423;48.768;8.850;2023-06-24T11:43:00;2.80;;;2.25;;
24305;SDS011;12423;48.768;8.850;2023-06-24T11:45:02;3.97;;;2.20;;
24305;SDS011;12423;48.768;8.850;2023-06-24T11:47:05;4.18;;;2.13;;
24305;SDS011;12423;48.768;8.850;2023-06-24T11:49:07;3.65;;;2.17;;
24305;SDS011;12423;48.768;8.850;2023-06-24T11:51:15;3.10;;;2.00;;
24305;SDS011;12423;48.768;8.850;2023-06-24T11:53:16;6.93;;;2.85;;
24305;SDS011;12423;48.768;8.850;2023-06-24T11:57:22;3.88;;;2.20;;
24305;SDS011;12423;48.768;8.850;2023-06-24T11:59:53;3.63;;;2.08;;
24305;SDS011;12423;48.768;8.850;2023-06-24T12:01:54;3.35;;;2.03;;
24305;SDS011;12423;48.768;8.850;2023-06-24T12:03:59;2.70;;;2.10;;
24305;SDS011;12423;48.768;8.850;2023-06-24T12:06:00;3.10;;;2.13;;
24305;SDS011;12423;48.768;8.850;2023-06-24T12:08:02;3.47;;;2.08;;
24305;SDS011;12423;48.768;8.850;2023-06-24T12:10:05;3.03;;;2.00;;
24305;SDS011;12423;48.768;8.850;2023-06-24T12:12:08;3.90;;;2.35;;
24305;SDS011;12423;48.768;8.850;2023-06-24T12:14:09;3.28;;;2.00;;
24305;SDS011;12423;48.768;8.850;2023-06-24T12:16:10;3.95;;;1.73;;
24305;SDS011;12423;48.768;8.850;2023-06-24T12:18:12;3.78;;;2.00;;
24305;SDS011;12423;48.768;8.850;2023-06-24T12:20:14;4.22;;;2.08;;
24305;SDS011;12423;48.768;8.850;2023-06-24T12:22:15;2.78;;;1.85;;
24305;SDS011;12423;48.768;8.850;2023-06-24T12:24:17;3.20;;;1.80;;
24305;SDS011;12423;48.768;8.850;2023-06-24T12:26:18;2.83;;;1.88;;
24305;SDS011;12423;48.768;8.850;2023-06-24T12:28:19;4.03;;;2.17;;
24305;SDS011;12423;48.768;8.850;2023-06-24T12:30:20;2.67;;;1.77;;
24305;SDS011;12423;48.768;8.850;2023-06-24T12:32:22;3.35;;;2.25;;
24305;SDS011;12423;48.768;8.850;2023-06-24T12:34:23;2.50;;;1.75;;
24305;SDS011;12423;48.768;8.850;2023-06-24T12:36:24;2.90;;;2.15;;